Time,TemperatureF,DewpointF,PressureIn,WindDirection,WindDirectionDegrees,WindSpeedMPH,WindSpeedGustMPH,Humidity,HourlyPrecipIn,Conditions,Clouds,dailyrainin,SoftwareType,DateUTC
2013-07-07 00:00:00,57.8,52.0,29.82,N/A,-32768,0.0,0.0,81,0.00,,,0.00,Wunderground v.1.12,2013-07-07 06:00:00,
2013-07-07 00:05:00,57.6,51.8,29.82,N/A,-32768,0.0,0.0,81,0.00,,,0.00,Wunderground v.1.12,2013-07-07 06:05:00,
2013-07-07 00:15:00,57.3,51.9,29.82,N/A,-32768,0.0,0.0,82,0.00,,,0.00,Wunderground v.1.12,2013-07-07 06:15:00,
2013-07-07 00:25:00,56.9,51.5,29.82,N/A,-32768,0.0,0.0,82,0.00,,,0.00,Wunderground v.1.12,2013-07-07 06:25:00,
2013-07-07 00:30:00,56.5,51.4,29.82,N/A,-32768,0.0,0.0,83,0.00,,,0.00,Wunderground v.1.12,2013-07-07 06:30:00,
2013-07-07 00:35:00,56.4,51.3,29.82,N/A,-32768,0.0,0.0,83,0.00,,,0.00,Wunderground v.1.12,2013-07-07 06:35:00,
2013-07-07 00:40:00,56.3,51.2,29.82,N/A,-32768,0.0,0.0,83,0.00,,,0.00,Wunderground v.1.12,2013-07-07 06:40:00,
2013-07-07 00:45:00,56.1,51.0,29.82,N/A,-32768,0.0,0.0,83,0.00,,,0.00,Wunderground v.1.12,2013-07-07 06:45:00,
2013-07-07 00:50:00,55.9,51.1,29.83,N/A,-32768,0.0,0.0,84,0.00,,,0.00,Wunderground v.1.12,2013-07-07 06:50:00,
2013-07-07 00:55:00,55.8,51.0,29.83,N/A,-32768,0.0,0.0,84,0.00,,,0.00,Wunderground v.1.12,2013-07-07 06:55:00,
2013-07-07 01:05:00,55.4,50.6,29.83,N/A,-32768,3.0,3.0,84,0.00,,,0.00,Wunderground v.1.12,2013-07-07 07:05:00,
2013-07-07 01:15:00,55.0,50.6,29.83,N/A,-32768,0.0,0.0,85,0.00,,,0.00,Wunderground v.1.12,2013-07-07 07:15:00,
2013-07-07 01:20:00,54.7,50.3,29.83,N/A,-32768,0.0,0.0,85,0.00,,,0.00,Wunderground v.1.12,2013-07-07 07:20:00,
2013-07-07 01:25:00,54.5,50.1,29.83,N/A,-32768,0.0,0.0,85,0.00,,,0.00,Wunderground v.1.12,2013-07-07 07:25:00,
2013-07-07 01:35:00,54.3,50.2,29.83,N/A,-32768,0.0,0.0,86,0.00,,,0.00,Wunderground v.1.12,2013-07-07 07:35:00,
2013-07-07 01:40:00,54.2,50.1,29.83,N/A,-32768,0.0,0.0,86,0.00,,,0.00,Wunderground v.1.12,2013-07-07 07:40:00,
2013-07-07 01:45:00,54.2,50.1,29.83,N/A,-32768,0.0,0.0,86,0.00,,,0.00,Wunderground v.1.12,2013-07-07 07:45:00,
2013-07-07 01:50:00,54.0,49.9,29.84,North,0,0.0,0.0,86,0.00,,,0.00,Wunderground v.1.12,2013-07-07 07:50:00,
2013-07-07 01:55:00,53.9,49.8,29.84,North,0,0.0,0.0,86,0.00,,,0.00,Wunderground v.1.12,2013-07-07 07:55:00,
2013-07-07 02:05:00,53.7,49.9,29.84,North,0,0.0,0.0,87,0.00,,,0.00,Wunderground v.1.12,2013-07-07 08:05:00,
2013-07-07 02:10:00,53.6,49.8,29.84,North,0,0.0,0.0,87,0.00,,,0.00,Wunderground v.1.12,2013-07-07 08:10:00,
2013-07-07 02:15:00,53.3,49.5,29.84,North,0,0.0,0.0,87,0.00,,,0.00,Wunderground v.1.12,2013-07-07 08:15:00,
2013-07-07 02:20:00,53.2,49.4,29.84,North,358,0.0,0.0,87,0.00,,,0.00,Wunderground v.1.12,2013-07-07 08:20:00,
2013-07-07 02:25:00,53.0,49.5,29.84,North,357,0.0,0.0,88,0.00,,,0.00,Wunderground v.1.12,2013-07-07 08:25:00,
2013-07-07 02:30:00,53.0,49.5,29.84,North,0,0.0,0.0,88,0.00,,,0.00,Wunderground v.1.12,2013-07-07 08:30:00,
2013-07-07 02:35:00,52.7,49.2,29.85,North,0,0.0,0.0,88,0.00,,,0.00,Wunderground v.1.12,2013-07-07 08:35:00,
2013-07-07 02:40:00,52.4,48.9,29.85,N/A,-32768,0.0,0.0,88,0.00,,,0.00,Wunderground v.1.12,2013-07-07 08:40:00,
2013-07-07 02:45:00,52.3,48.9,29.85,North,0,0.0,0.0,88,0.00,,,0.00,Wunderground v.1.12,2013-07-07 08:45:00,
2013-07-07 02:50:00,52.2,48.8,29.85,North,0,0.0,0.0,88,0.00,,,0.00,Wunderground v.1.12,2013-07-07 08:50:00,
2013-07-07 02:55:00,52.0,48.6,29.84,North,359,0.0,0.0,88,0.00,,,0.00,Wunderground v.1.12,2013-07-07 08:55:00,
2013-07-07 03:00:00,51.8,48.4,29.84,NNW,343,0.0,0.0,88,0.00,,,0.00,Wunderground v.1.12,2013-07-07 09:00:00,
2013-07-07 03:10:00,51.7,48.6,29.85,NW,308,0.0,0.0,89,0.00,,,0.00,Wunderground v.1.12,2013-07-07 09:10:00,
2013-07-07 03:15:00,51.5,48.7,29.85,NW,312,0.0,0.0,90,0.00,,,0.00,Wunderground v.1.12,2013-07-07 09:15:00,
2013-07-07 03:20:00,51.5,48.7,29.85,NW,323,0.0,0.0,90,0.00,,,0.00,Wunderground v.1.12,2013-07-07 09:20:00,
2013-07-07 03:25:00,51.4,48.6,29.85,N/A,-32768,0.0,0.0,90,0.00,,,0.00,Wunderground v.1.12,2013-07-07 09:25:00,
2013-07-07 03:30:00,51.2,48.4,29.85,NW,315,0.0,0.0,90,0.00,,,0.00,Wunderground v.1.12,2013-07-07 09:30:00,
2013-07-07 03:40:00,51.2,48.1,29.85,N/A,-32768,0.0,0.0,89,0.00,,,0.00,Wunderground v.1.12,2013-07-07 09:40:00,
2013-07-07 03:45:00,51.3,48.2,29.85,North,350,0.0,0.0,89,0.00,,,0.00,Wunderground v.1.12,2013-07-07 09:45:00,
2013-07-07 03:50:00,51.1,48.3,29.85,NW,322,0.0,0.0,90,0.00,,,0.00,Wunderground v.1.12,2013-07-07 09:50:00,
2013-07-07 03:55:00,51.1,48.3,29.85,NNW,334,0.0,0.0,90,0.00,,,0.00,Wunderground v.1.12,2013-07-07 09:55:00,
2013-07-07 04:00:00,51.0,48.2,29.85,NW,314,0.0,0.0,90,0.00,,,0.00,Wunderground v.1.12,2013-07-07 10:00:00,
2013-07-07 04:10:00,50.8,48.3,29.85,NW,319,0.0,0.0,91,0.00,,,0.00,Wunderground v.1.12,2013-07-07 10:10:00,
2013-07-07 04:15:00,50.9,48.4,29.85,NW,320,0.0,0.0,91,0.00,,,0.00,Wunderground v.1.12,2013-07-07 10:15:00,
2013-07-07 04:20:00,50.7,48.2,29.85,NW,315,0.0,0.0,91,0.00,,,0.00,Wunderground v.1.12,2013-07-07 10:20:00,
2013-07-07 04:25:00,50.7,48.5,29.85,NW,323,0.0,0.0,92,0.00,,,0.00,Wunderground v.1.12,2013-07-07 10:25:00,
2013-07-07 04:30:00,50.8,48.6,29.85,NW,315,0.0,0.0,92,0.00,,,0.00,Wunderground v.1.12,2013-07-07 10:30:00,
2013-07-07 04:35:00,50.9,48.7,29.85,NW,316,0.0,0.0,92,0.00,,,0.00,Wunderground v.1.12,2013-07-07 10:35:00,
2013-07-07 04:40:00,50.7,48.5,29.85,NW,315,0.0,0.0,92,0.00,,,0.00,Wunderground v.1.12,2013-07-07 10:40:00,
2013-07-07 04:45:00,50.8,48.6,29.85,NW,314,0.0,0.0,92,0.00,,,0.00,Wunderground v.1.12,2013-07-07 10:45:00,
2013-07-07 04:50:00,50.7,48.7,29.85,NW,311,0.0,0.0,93,0.00,,,0.00,Wunderground v.1.12,2013-07-07 10:50:00,
2013-07-07 04:55:00,50.8,48.8,29.85,NW,315,0.0,0.0,93,0.00,,,0.00,Wunderground v.1.12,2013-07-07 10:55:00,
2013-07-07 05:00:00,50.7,48.5,29.85,NW,311,0.0,0.0,92,0.00,,,0.00,Wunderground v.1.12,2013-07-07 11:00:00,
2013-07-07 05:05:00,50.5,48.6,29.85,NW,311,0.0,0.0,93,0.00,,,0.00,Wunderground v.1.12,2013-07-07 11:05:00,
2013-07-07 05:15:00,50.3,48.1,29.85,NW,311,0.0,0.0,92,0.00,,,0.00,Wunderground v.1.12,2013-07-07 11:15:00,
2013-07-07 05:20:00,50.3,48.4,29.85,NW,308,0.0,0.0,93,0.00,,,0.00,Wunderground v.1.12,2013-07-07 11:20:00,
2013-07-07 05:25:00,50.3,48.4,29.86,NW,305,0.0,0.0,93,0.00,,,0.00,Wunderground v.1.12,2013-07-07 11:25:00,
2013-07-07 05:30:00,50.2,48.3,29.86,WNW,303,0.0,0.0,93,0.00,,,0.00,Wunderground v.1.12,2013-07-07 11:30:00,
2013-07-07 05:35:00,50.2,48.3,29.86,WNW,301,0.0,0.0,93,0.00,,,0.00,Wunderground v.1.12,2013-07-07 11:35:00,
2013-07-07 05:40:00,50.3,48.4,29.86,WNW,300,0.0,0.0,93,0.00,,,0.00,Wunderground v.1.12,2013-07-07 11:40:00,
2013-07-07 05:45:00,50.2,48.3,29.86,WNW,297,0.0,0.0,93,0.00,,,0.00,Wunderground v.1.12,2013-07-07 11:45:00,
2013-07-07 05:50:00,50.3,48.6,29.86,WNW,298,0.0,0.0,94,0.00,,,0.00,Wunderground v.1.12,2013-07-07 11:50:00,
2013-07-07 05:55:00,50.0,48.3,29.86,WNW,296,0.0,0.0,94,0.00,,,0.00,Wunderground v.1.12,2013-07-07 11:55:00,
2013-07-07 06:00:00,49.8,48.1,29.86,WNW,299,0.0,0.0,94,0.00,,,0.00,Wunderground v.1.12,2013-07-07 12:00:00,
2013-07-07 06:10:00,50.2,48.8,29.86,WNW,291,0.0,0.0,95,0.00,,,0.00,Wunderground v.1.12,2013-07-07 12:10:00,
2013-07-07 06:15:00,50.6,48.9,29.86,WNW,297,0.0,0.0,94,0.00,,,0.00,Wunderground v.1.12,2013-07-07 12:15:00,
2013-07-07 06:20:00,51.2,49.5,29.86,WNW,303,0.0,0.0,94,0.00,,,0.00,Wunderground v.1.12,2013-07-07 12:20:00,
2013-07-07 06:25:00,51.8,49.8,29.86,NW,312,0.0,0.0,93,0.00,,,0.00,Wunderground v.1.12,2013-07-07 12:25:00,
2013-07-07 06:30:00,52.4,50.1,29.86,NW,314,0.0,0.0,92,0.00,,,0.00,Wunderground v.1.12,2013-07-07 12:30:00,
2013-07-07 06:35:00,52.5,50.2,29.86,NW,313,0.0,0.0,92,0.00,,,0.00,Wunderground v.1.12,2013-07-07 12:35:00,
2013-07-07 06:40:00,52.9,50.6,29.86,NW,319,0.0,0.0,92,0.00,,,0.00,Wunderground v.1.12,2013-07-07 12:40:00,
2013-07-07 06:45:00,53.4,51.1,29.86,NW,314,0.0,0.0,92,0.00,,,0.00,Wunderground v.1.12,2013-07-07 12:45:00,
2013-07-07 06:55:00,54.0,51.7,29.87,NW,319,0.0,0.0,92,0.00,,,0.00,Wunderground v.1.12,2013-07-07 12:55:00,
2013-07-07 07:00:00,54.0,52.0,29.87,NW,317,0.0,0.0,93,0.00,,,0.00,Wunderground v.1.12,2013-07-07 13:00:00,
2013-07-07 07:05:00,54.2,51.9,29.87,NW,318,0.0,0.0,92,0.00,,,0.00,Wunderground v.1.12,2013-07-07 13:05:00,
2013-07-07 07:15:00,54.3,51.7,29.87,NNW,334,0.0,0.0,91,0.00,,,0.00,Wunderground v.1.12,2013-07-07 13:15:00,
2013-07-07 07:20:00,54.5,51.9,29.87,NNW,335,0.0,0.0,91,0.00,,,0.00,Wunderground v.1.12,2013-07-07 13:20:00,
2013-07-07 07:25:00,55.0,52.4,29.87,NNW,343,0.0,0.0,91,0.00,,,0.00,Wunderground v.1.12,2013-07-07 13:25:00,
2013-07-07 07:30:00,54.9,52.6,29.87,NNW,347,0.0,0.0,92,0.00,,,0.00,Wunderground v.1.12,2013-07-07 13:30:00,
2013-07-07 07:35:00,55.1,52.5,29.87,North,0,0.0,0.0,91,0.00,,,0.00,Wunderground v.1.12,2013-07-07 13:35:00,
2013-07-07 07:45:00,55.6,53.6,29.87,North,0,0.0,0.0,93,0.00,,,0.00,Wunderground v.1.12,2013-07-07 13:45:00,
2013-07-07 07:50:00,55.8,53.8,29.87,North,0,0.0,0.0,93,0.00,,,0.00,Wunderground v.1.12,2013-07-07 13:50:00,
2013-07-07 07:55:00,56.1,54.1,29.87,N/A,-32768,0.0,0.0,93,0.00,,,0.00,Wunderground v.1.12,2013-07-07 13:55:00,
2013-07-07 08:00:00,56.3,54.0,29.87,N/A,-32768,0.0,0.0,92,0.00,,,0.00,Wunderground v.1.12,2013-07-07 14:00:00,
2013-07-07 08:05:00,56.5,54.2,29.87,N/A,-32768,0.0,0.0,92,0.00,,,0.00,Wunderground v.1.12,2013-07-07 14:05:00,
2013-07-07 08:10:00,56.8,54.5,29.87,N/A,-32768,0.0,0.0,92,0.00,,,0.00,Wunderground v.1.12,2013-07-07 14:10:00,
2013-07-07 08:15:00,57.0,55.0,29.87,N/A,-32768,0.0,0.0,93,0.00,,,0.00,Wunderground v.1.12,2013-07-07 14:15:00,
2013-07-07 08:20:00,57.3,55.0,29.88,N/A,-32768,0.0,0.0,92,0.00,,,0.00,Wunderground v.1.12,2013-07-07 14:20:00,
2013-07-07 08:25:00,57.7,55.7,29.88,N/A,-32768,0.0,0.0,93,0.00,,,0.00,Wunderground v.1.12,2013-07-07 14:25:00,
2013-07-07 08:30:00,58.1,55.8,29.87,N/A,-32768,0.0,0.0,92,0.00,,,0.00,Wunderground v.1.12,2013-07-07 14:30:00,
2013-07-07 08:35:00,58.5,55.9,29.88,N/A,-32768,0.0,0.0,91,0.00,,,0.00,Wunderground v.1.12,2013-07-07 14:35:00,
2013-07-07 08:40:00,58.9,55.7,29.88,N/A,-32768,0.0,0.0,89,0.00,,,0.00,Wunderground v.1.12,2013-07-07 14:40:00,
2013-07-07 08:45:00,59.3,54.8,29.88,N/A,-32768,0.0,0.0,85,0.00,,,0.00,Wunderground v.1.12,2013-07-07 14:45:00,
2013-07-07 08:55:00,59.9,55.1,29.88,N/A,-32768,0.0,0.0,84,0.00,,,0.00,Wunderground v.1.12,2013-07-07 14:55:00,
2013-07-07 09:00:00,60.3,54.8,29.88,N/A,-32768,0.0,0.0,82,0.00,,,0.00,Wunderground v.1.12,2013-07-07 15:00:00,
2013-07-07 09:05:00,60.9,55.4,29.88,N/A,-32768,0.0,0.0,82,0.00,,,0.00,Wunderground v.1.12,2013-07-07 15:05:00,
2013-07-07 09:10:00,61.5,55.3,29.87,N/A,-32768,0.0,0.0,80,0.00,,,0.00,Wunderground v.1.12,2013-07-07 15:10:00,
2013-07-07 09:15:00,62.0,55.8,29.88,N/A,-32768,0.0,0.0,80,0.00,,,0.00,Wunderground v.1.12,2013-07-07 15:15:00,
2013-07-07 09:20:00,62.6,55.6,29.87,N/A,-32768,0.0,0.0,78,0.00,,,0.00,Wunderground v.1.12,2013-07-07 15:20:00,
2013-07-07 09:25:00,63.3,56.3,29.87,N/A,-32768,0.0,0.0,78,0.00,,,0.00,Wunderground v.1.12,2013-07-07 15:25:00,
2013-07-07 09:30:00,63.9,56.2,29.87,N/A,-32768,0.0,0.0,76,0.00,,,0.00,Wunderground v.1.12,2013-07-07 15:30:00,
2013-07-07 09:35:00,65.1,55.8,29.87,N/A,-32768,0.0,0.0,72,0.00,,,0.00,Wunderground v.1.12,2013-07-07 15:35:00,
2013-07-07 09:40:00,66.2,56.5,29.87,N/A,-32768,0.0,0.0,71,0.00,,,0.00,Wunderground v.1.12,2013-07-07 15:40:00,
2013-07-07 09:45:00,67.4,57.7,29.87,N/A,-32768,0.0,0.0,71,0.00,,,0.00,Wunderground v.1.12,2013-07-07 15:45:00,
2013-07-07 09:55:00,69.9,57.6,29.87,N/A,-32768,0.0,0.0,65,0.00,,,0.00,Wunderground v.1.12,2013-07-07 15:55:00,
2013-07-07 10:00:00,71.0,58.2,29.87,N/A,-32768,0.0,0.0,64,0.00,,,0.00,Wunderground v.1.12,2013-07-07 16:00:00,
2013-07-07 10:05:00,72.0,58.7,29.87,N/A,-32768,0.0,0.0,63,0.00,,,0.00,Wunderground v.1.12,2013-07-07 16:05:00,
2013-07-07 10:10:00,73.0,58.3,29.87,N/A,-32768,0.0,0.0,60,0.00,,,0.00,Wunderground v.1.12,2013-07-07 16:10:00,
2013-07-07 10:15:00,73.9,59.6,29.87,N/A,-32768,0.0,0.0,61,0.00,,,0.00,Wunderground v.1.12,2013-07-07 16:15:00,
2013-07-07 10:20:00,74.9,60.5,29.86,N/A,-32768,0.0,0.0,61,0.00,,,0.00,Wunderground v.1.12,2013-07-07 16:20:00,
2013-07-07 10:25:00,75.9,60.1,29.87,N/A,-32768,0.0,0.0,58,0.00,,,0.00,Wunderground v.1.12,2013-07-07 16:25:00,
2013-07-07 10:30:00,76.5,59.6,29.87,N/A,-32768,0.0,0.0,56,0.00,,,0.00,Wunderground v.1.12,2013-07-07 16:30:00,
2013-07-07 10:35:00,76.8,60.9,29.86,N/A,-32768,0.0,0.0,58,0.00,,,0.00,Wunderground v.1.12,2013-07-07 16:35:00,
2013-07-07 10:40:00,77.5,61.6,29.86,N/A,-32768,5.0,5.0,58,0.00,,,0.00,Wunderground v.1.12,2013-07-07 16:40:00,
2013-07-07 10:45:00,78.2,61.7,29.86,N/A,-32768,3.0,3.0,57,0.00,,,0.00,Wunderground v.1.12,2013-07-07 16:45:00,
2013-07-07 10:50:00,78.5,62.5,29.86,N/A,-32768,4.0,4.0,58,0.00,,,0.00,Wunderground v.1.12,2013-07-07 16:50:00,
2013-07-07 11:00:00,79.3,62.2,29.86,N/A,-32768,0.0,0.0,56,0.00,,,0.00,Wunderground v.1.12,2013-07-07 17:00:00,
2013-07-07 11:05:00,80.1,62.5,29.86,N/A,-32768,0.0,0.0,55,0.00,,,0.00,Wunderground v.1.12,2013-07-07 17:05:00,
2013-07-07 11:10:00,80.7,63.0,29.86,N/A,-32768,0.0,0.0,55,0.00,,,0.00,Wunderground v.1.12,2013-07-07 17:10:00,
2013-07-07 11:15:00,81.1,62.9,29.86,N/A,-32768,0.0,0.0,54,0.00,,,0.00,Wunderground v.1.12,2013-07-07 17:15:00,
2013-07-07 11:20:00,81.7,62.9,29.86,N/A,-32768,0.0,0.0,53,0.00,,,0.00,Wunderground v.1.12,2013-07-07 17:20:00,
2013-07-07 11:25:00,81.9,63.6,29.86,N/A,-32768,0.0,0.0,54,0.00,,,0.00,Wunderground v.1.12,2013-07-07 17:25:00,
2013-07-07 11:30:00,82.0,62.6,29.86,N/A,-32768,0.0,0.0,52,0.00,,,0.00,Wunderground v.1.12,2013-07-07 17:30:00,
2013-07-07 11:35:00,82.3,63.5,29.86,N/A,-32768,0.0,0.0,53,0.00,,,0.00,Wunderground v.1.12,2013-07-07 17:35:00,
2013-07-07 11:45:00,83.1,63.7,29.86,N/A,-32768,0.0,0.0,52,0.00,,,0.00,Wunderground v.1.12,2013-07-07 17:45:00,
2013-07-07 11:55:00,83.7,64.2,29.85,N/A,-32768,5.0,5.0,52,0.00,,,0.00,Wunderground v.1.12,2013-07-07 17:55:00,
2013-07-07 12:00:00,83.9,64.4,29.85,N/A,-32768,0.0,0.0,52,0.00,,,0.00,Wunderground v.1.12,2013-07-07 18:00:00,
2013-07-07 12:05:00,84.0,63.9,29.85,N/A,-32768,0.0,0.0,51,0.00,,,0.00,Wunderground v.1.12,2013-07-07 18:05:00,
2013-07-07 12:10:00,84.0,63.9,29.85,N/A,-32768,0.0,0.0,51,0.00,,,0.00,Wunderground v.1.12,2013-07-07 18:10:00,
2013-07-07 12:15:00,83.8,63.2,29.85,N/A,-32768,0.0,0.0,50,0.00,,,0.00,Wunderground v.1.12,2013-07-07 18:15:00,
2013-07-07 12:20:00,84.1,62.9,29.85,N/A,-32768,0.0,0.0,49,0.00,,,0.00,Wunderground v.1.12,2013-07-07 18:20:00,
2013-07-07 12:25:00,84.4,62.0,29.85,N/A,-32768,0.0,0.0,47,0.00,,,0.00,Wunderground v.1.12,2013-07-07 18:25:00,
2013-07-07 12:35:00,84.4,61.4,29.85,N/A,-32768,0.0,0.0,46,0.00,,,0.00,Wunderground v.1.12,2013-07-07 18:35:00,
2013-07-07 12:40:00,84.7,62.2,29.84,N/A,-32768,0.0,0.0,47,0.00,,,0.00,Wunderground v.1.12,2013-07-07 18:40:00,
2013-07-07 12:45:00,85.3,61.6,29.84,N/A,-32768,0.0,0.0,45,0.00,,,0.00,Wunderground v.1.12,2013-07-07 18:45:00,
2013-07-07 12:50:00,85.6,61.2,29.84,N/A,-32768,0.0,0.0,44,0.00,,,0.00,Wunderground v.1.12,2013-07-07 18:50:00,
2013-07-07 12:55:00,85.5,60.4,29.84,N/A,-32768,0.0,0.0,43,0.00,,,0.00,Wunderground v.1.12,2013-07-07 18:55:00,
2013-07-07 13:05:00,85.9,62.1,29.83,N/A,-32768,0.0,0.0,45,0.00,,,0.00,Wunderground v.1.12,2013-07-07 19:05:00,
2013-07-07 13:10:00,85.8,61.4,29.83,N/A,-32768,0.0,0.0,44,0.00,,,0.00,Wunderground v.1.12,2013-07-07 19:10:00,
2013-07-07 13:15:00,85.5,60.4,29.83,N/A,-32768,0.0,0.0,43,0.00,,,0.00,Wunderground v.1.12,2013-07-07 19:15:00,
2013-07-07 13:20:00,86.1,61.0,29.83,N/A,-32768,0.0,0.0,43,0.00,,,0.00,Wunderground v.1.12,2013-07-07 19:20:00,
2013-07-07 13:25:00,85.4,60.4,29.83,N/A,-32768,0.0,0.0,43,0.00,,,0.00,Wunderground v.1.12,2013-07-07 19:25:00,
2013-07-07 13:35:00,84.5,59.5,29.83,N/A,-32768,0.0,0.0,43,0.00,,,0.00,Wunderground v.1.12,2013-07-07 19:35:00,
2013-07-07 13:40:00,84.7,59.7,29.83,N/A,-32768,0.0,0.0,43,0.00,,,0.00,Wunderground v.1.12,2013-07-07 19:40:00,
2013-07-07 13:45:00,84.9,60.6,29.83,N/A,-32768,0.0,0.0,44,0.00,,,0.00,Wunderground v.1.12,2013-07-07 19:45:00,
2013-07-07 13:50:00,85.5,59.8,29.82,N/A,-32768,0.0,0.0,42,0.00,,,0.00,Wunderground v.1.12,2013-07-07 19:50:00,
2013-07-07 13:55:00,86.0,61.5,29.82,N/A,-32768,0.0,0.0,44,0.00,,,0.00,Wunderground v.1.12,2013-07-07 19:55:00,
2013-07-07 14:05:00,85.3,58.9,29.82,N/A,-32768,0.0,0.0,41,0.00,,,0.00,Wunderground v.1.12,2013-07-07 20:05:00,
2013-07-07 14:10:00,84.8,60.5,29.82,N/A,-32768,0.0,0.0,44,0.00,,,0.00,Wunderground v.1.12,2013-07-07 20:10:00,
2013-07-07 14:15:00,85.3,60.3,29.82,N/A,-32768,0.0,0.0,43,0.00,,,0.00,Wunderground v.1.12,2013-07-07 20:15:00,
2013-07-07 14:20:00,85.7,60.6,29.81,N/A,-32768,10.0,10.0,43,0.00,,,0.00,Wunderground v.1.12,2013-07-07 20:20:00,
2013-07-07 14:25:00,86.2,63.0,29.81,N/A,-32768,0.0,0.0,46,0.00,,,0.00,Wunderground v.1.12,2013-07-07 20:25:00,
2013-07-07 14:30:00,86.4,61.9,29.81,N/A,-32768,0.0,0.0,44,0.00,,,0.00,Wunderground v.1.12,2013-07-07 20:30:00,
2013-07-07 14:40:00,85.4,61.0,29.81,N/A,-32768,0.0,0.0,44,0.00,,,0.00,Wunderground v.1.12,2013-07-07 20:40:00,
2013-07-07 14:45:00,84.7,60.4,29.81,N/A,-32768,0.0,0.0,44,0.00,,,0.00,Wunderground v.1.12,2013-07-07 20:45:00,
2013-07-07 14:50:00,84.5,60.8,29.81,N/A,-32768,0.0,0.0,45,0.00,,,0.00,Wunderground v.1.12,2013-07-07 20:50:00,
2013-07-07 14:55:00,83.8,60.2,29.81,N/A,-32768,0.0,0.0,45,0.00,,,0.00,Wunderground v.1.12,2013-07-07 20:55:00,
2013-07-07 15:00:00,84.3,60.0,29.81,N/A,-32768,0.0,0.0,44,0.00,,,0.00,Wunderground v.1.12,2013-07-07 21:00:00,
2013-07-07 15:05:00,83.8,61.4,29.81,N/A,-32768,0.0,0.0,47,0.00,,,0.00,Wunderground v.1.12,2013-07-07 21:05:00,
2013-07-07 15:10:00,84.1,61.1,29.80,N/A,-32768,0.0,0.0,46,0.00,,,0.00,Wunderground v.1.12,2013-07-07 21:10:00,
2013-07-07 15:15:00,84.6,60.3,29.80,N/A,-32768,0.0,0.0,44,0.00,,,0.00,Wunderground v.1.12,2013-07-07 21:15:00,
2013-07-07 15:25:00,84.2,61.8,29.80,N/A,-32768,2.0,2.0,47,0.00,,,0.00,Wunderground v.1.12,2013-07-07 21:25:00,
2013-07-07 15:30:00,83.7,62.5,29.80,N/A,-32768,0.0,0.0,49,0.00,,,0.00,Wunderground v.1.12,2013-07-07 21:30:00,
2013-07-07 15:40:00,83.6,60.6,29.80,N/A,-32768,0.0,0.0,46,0.00,,,0.00,Wunderground v.1.12,2013-07-07 21:40:00,
2013-07-07 15:45:00,83.5,61.1,29.80,N/A,-32768,2.0,2.0,47,0.00,,,0.00,Wunderground v.1.12,2013-07-07 21:45:00,
2013-07-07 15:50:00,83.3,62.1,29.80,N/A,-32768,0.0,0.0,49,0.00,,,0.00,Wunderground v.1.12,2013-07-07 21:50:00,
2013-07-07 15:55:00,83.2,61.5,29.80,N/A,-32768,6.0,6.0,48,0.00,,,0.00,Wunderground v.1.12,2013-07-07 21:55:00,
2013-07-07 16:00:00,83.0,61.9,29.80,N/A,-32768,0.0,0.0,49,0.00,,,0.00,Wunderground v.1.12,2013-07-07 22:00:00,
2013-07-07 16:05:00,82.2,60.0,29.79,N/A,-32768,1.0,1.0,47,0.00,,,0.00,Wunderground v.1.12,2013-07-07 22:05:00,
2013-07-07 16:10:00,81.3,60.3,29.79,N/A,-32768,0.0,0.0,49,0.00,,,0.00,Wunderground v.1.12,2013-07-07 22:10:00,
2013-07-07 16:15:00,81.2,60.2,29.80,N/A,-32768,0.0,0.0,49,0.00,,,0.00,Wunderground v.1.12,2013-07-07 22:15:00,
2013-07-07 16:25:00,81.1,60.7,29.79,N/A,-32768,0.0,0.0,50,0.00,,,0.00,Wunderground v.1.12,2013-07-07 22:25:00,
2013-07-07 16:30:00,81.0,60.6,29.79,N/A,-32768,0.0,0.0,50,0.00,,,0.00,Wunderground v.1.12,2013-07-07 22:30:00,
2013-07-07 16:35:00,80.7,58.6,29.79,N/A,-32768,2.0,2.0,47,0.00,,,0.00,Wunderground v.1.12,2013-07-07 22:35:00,
2013-07-07 16:45:00,80.4,58.3,29.79,N/A,-32768,0.0,0.0,47,0.00,,,0.00,Wunderground v.1.12,2013-07-07 22:45:00,
2013-07-07 16:50:00,80.0,58.0,29.78,N/A,-32768,0.0,0.0,47,0.00,,,0.00,Wunderground v.1.12,2013-07-07 22:50:00,
2013-07-07 17:00:00,80.1,59.8,29.78,N/A,-32768,2.0,2.0,50,0.00,,,0.00,Wunderground v.1.12,2013-07-07 23:00:00,
2013-07-07 17:10:00,80.0,58.5,29.78,N/A,-32768,0.0,0.0,48,0.00,,,0.00,Wunderground v.1.12,2013-07-07 23:10:00,
2013-07-07 17:15:00,79.9,59.6,29.78,N/A,-32768,0.0,0.0,50,0.00,,,0.00,Wunderground v.1.12,2013-07-07 23:15:00,
2013-07-07 17:20:00,79.8,58.9,29.78,N/A,-32768,0.0,0.0,49,0.00,,,0.00,Wunderground v.1.12,2013-07-07 23:20:00,
2013-07-07 17:25:00,79.8,59.5,29.78,N/A,-32768,0.0,0.0,50,0.00,,,0.00,Wunderground v.1.12,2013-07-07 23:25:00,
2013-07-07 17:35:00,79.6,58.8,29.78,N/A,-32768,2.0,2.0,49,0.00,,,0.00,Wunderground v.1.12,2013-07-07 23:35:00,
2013-07-07 17:45:00,79.2,57.2,29.78,N/A,-32768,0.0,0.0,47,0.00,,,0.00,Wunderground v.1.12,2013-07-07 23:45:00,
2013-07-07 17:50:00,79.1,57.7,29.78,N/A,-32768,0.0,0.0,48,0.00,,,0.00,Wunderground v.1.12,2013-07-07 23:50:00,
2013-07-07 18:00:00,78.8,57.4,29.78,N/A,-32768,0.0,0.0,48,0.00,,,0.00,Wunderground v.1.12,2013-07-08 00:00:00,
2013-07-07 18:05:00,78.6,57.3,29.78,N/A,-32768,0.0,0.0,48,0.00,,,0.00,Wunderground v.1.12,2013-07-08 00:05:00,
2013-07-07 18:10:00,78.6,57.8,29.78,N/A,-32768,0.0,0.0,49,0.00,,,0.00,Wunderground v.1.12,2013-07-08 00:10:00,
2013-07-07 18:20:00,78.5,57.2,29.78,N/A,-32768,0.0,0.0,48,0.00,,,0.00,Wunderground v.1.12,2013-07-08 00:20:00,
2013-07-07 18:25:00,78.4,57.1,29.77,N/A,-32768,0.0,0.0,48,0.00,,,0.00,Wunderground v.1.12,2013-07-08 00:25:00,
2013-07-07 18:30:00,78.3,57.6,29.77,N/A,-32768,0.0,0.0,49,0.00,,,0.00,Wunderground v.1.12,2013-07-08 00:30:00,
2013-07-07 18:35:00,78.2,56.9,29.77,N/A,-32768,0.0,0.0,48,0.00,,,0.00,Wunderground v.1.12,2013-07-08 00:35:00,
2013-07-07 18:40:00,78.2,56.9,29.77,N/A,-32768,0.0,0.0,48,0.00,,,0.00,Wunderground v.1.12,2013-07-08 00:40:00,
2013-07-07 18:50:00,78.1,56.2,29.77,N/A,-32768,0.0,0.0,47,0.00,,,0.00,Wunderground v.1.12,2013-07-08 00:50:00,
2013-07-07 18:55:00,78.1,56.8,29.77,N/A,-32768,0.0,0.0,48,0.00,,,0.00,Wunderground v.1.12,2013-07-08 00:55:00,
2013-07-07 19:00:00,78.0,56.7,29.77,N/A,-32768,0.0,0.0,48,0.00,,,0.00,Wunderground v.1.12,2013-07-08 01:00:00,
2013-07-07 19:05:00,78.0,56.7,29.77,N/A,-32768,0.0,0.0,48,0.00,,,0.00,Wunderground v.1.12,2013-07-08 01:05:00,
2013-07-07 19:10:00,77.9,56.6,29.77,N/A,-32768,0.0,0.0,48,0.00,,,0.00,Wunderground v.1.12,2013-07-08 01:10:00,
2013-07-07 19:15:00,77.8,56.5,29.77,N/A,-32768,0.0,0.0,48,0.00,,,0.00,Wunderground v.1.12,2013-07-08 01:15:00,
2013-07-07 19:20:00,77.5,56.8,29.77,N/A,-32768,0.0,0.0,49,0.00,,,0.00,Wunderground v.1.12,2013-07-08 01:20:00,
2013-07-07 19:25:00,77.3,56.6,29.77,N/A,-32768,0.0,0.0,49,0.00,,,0.00,Wunderground v.1.12,2013-07-08 01:25:00,
2013-07-07 19:30:00,77.2,57.7,29.77,N/A,-32768,0.0,0.0,51,0.00,,,0.00,Wunderground v.1.12,2013-07-08 01:30:00,
2013-07-07 19:40:00,76.9,57.9,29.77,N/A,-32768,0.0,0.0,52,0.00,,,0.00,Wunderground v.1.12,2013-07-08 01:40:00,
2013-07-07 19:45:00,76.7,57.2,29.77,N/A,-32768,0.0,0.0,51,0.00,,,0.00,Wunderground v.1.12,2013-07-08 01:45:00,
2013-07-07 19:55:00,76.1,59.3,29.77,N/A,-32768,0.0,0.0,56,0.00,,,0.00,Wunderground v.1.12,2013-07-08 01:55:00,
2013-07-07 20:00:00,75.8,58.5,29.77,N/A,-32768,0.0,0.0,55,0.00,,,0.00,Wunderground v.1.12,2013-07-08 02:00:00,
2013-07-07 20:05:00,75.4,59.1,29.77,N/A,-32768,0.0,0.0,57,0.00,,,0.00,Wunderground v.1.12,2013-07-08 02:05:00,
2013-07-07 20:10:00,75.1,58.8,29.77,N/A,-32768,0.0,0.0,57,0.00,,,0.00,Wunderground v.1.12,2013-07-08 02:10:00,
2013-07-07 20:15:00,74.7,58.9,29.77,N/A,-32768,0.0,0.0,58,0.00,,,0.00,Wunderground v.1.12,2013-07-08 02:15:00,
2013-07-07 20:20:00,74.4,59.1,29.77,N/A,-32768,0.0,0.0,59,0.00,,,0.00,Wunderground v.1.12,2013-07-08 02:20:00,
2013-07-07 20:30:00,73.8,59.5,29.77,N/A,-32768,0.0,0.0,61,0.00,,,0.00,Wunderground v.1.12,2013-07-08 02:30:00,
2013-07-07 20:35:00,73.5,61.4,29.78,N/A,-32768,0.0,0.0,66,0.00,,,0.00,Wunderground v.1.12,2013-07-08 02:35:00,
2013-07-07 20:45:00,72.9,61.7,29.78,N/A,-32768,0.0,0.0,68,0.00,,,0.00,Wunderground v.1.12,2013-07-08 02:45:00,
2013-07-07 20:55:00,72.2,61.5,29.78,N/A,-32768,0.0,0.0,69,0.00,,,0.00,Wunderground v.1.12,2013-07-08 02:55:00,
2013-07-07 21:05:00,71.2,60.5,29.78,N/A,-32768,0.0,0.0,69,0.00,,,0.00,Wunderground v.1.12,2013-07-08 03:05:00,
2013-07-07 21:10:00,70.6,59.9,29.78,N/A,-32768,0.0,0.0,69,0.00,,,0.00,Wunderground v.1.12,2013-07-08 03:10:00,
2013-07-07 21:15:00,70.1,59.9,29.78,N/A,-32768,0.0,0.0,70,0.00,,,0.00,Wunderground v.1.12,2013-07-08 03:15:00,
2013-07-07 21:25:00,69.0,59.2,29.78,N/A,-32768,0.0,0.0,71,0.00,,,0.00,Wunderground v.1.12,2013-07-08 03:25:00,
2013-07-07 21:30:00,68.6,58.8,29.78,N/A,-32768,0.0,0.0,71,0.00,,,0.00,Wunderground v.1.12,2013-07-08 03:30:00,
2013-07-07 21:35:00,68.2,58.8,29.78,N/A,-32768,0.0,0.0,72,0.00,,,0.00,Wunderground v.1.12,2013-07-08 03:35:00,
2013-07-07 21:45:00,67.4,58.1,29.79,N/A,-32768,0.0,0.0,72,0.00,,,0.00,Wunderground v.1.12,2013-07-08 03:45:00,
2013-07-07 21:50:00,67.0,58.1,29.79,N/A,-32768,0.0,0.0,73,0.00,,,0.00,Wunderground v.1.12,2013-07-08 03:50:00,
2013-07-07 22:00:00,66.2,57.3,29.79,N/A,-32768,0.0,0.0,73,0.00,,,0.00,Wunderground v.1.12,2013-07-08 04:00:00,
2013-07-07 22:05:00,65.8,56.9,29.79,N/A,-32768,0.0,0.0,73,0.00,,,0.00,Wunderground v.1.12,2013-07-08 04:05:00,
2013-07-07 22:10:00,65.5,57.0,29.79,N/A,-32768,0.0,0.0,74,0.00,,,0.00,Wunderground v.1.12,2013-07-08 04:10:00,
2013-07-07 22:15:00,65.2,56.3,29.79,N/A,-32768,0.0,0.0,73,0.00,,,0.00,Wunderground v.1.12,2013-07-08 04:15:00,
2013-07-07 22:20:00,65.0,56.5,29.79,N/A,-32768,0.0,0.0,74,0.00,,,0.00,Wunderground v.1.12,2013-07-08 04:20:00,
2013-07-07 22:25:00,64.6,56.1,29.80,N/A,-32768,0.0,0.0,74,0.00,,,0.00,Wunderground v.1.12,2013-07-08 04:25:00,
2013-07-07 22:30:00,64.3,56.2,29.79,N/A,-32768,0.0,0.0,75,0.00,,,0.00,Wunderground v.1.12,2013-07-08 04:30:00,
2013-07-07 22:35:00,64.0,55.9,29.80,N/A,-32768,0.0,0.0,75,0.00,,,0.00,Wunderground v.1.12,2013-07-08 04:35:00,
2013-07-07 22:40:00,63.5,55.4,29.80,N/A,-32768,0.0,0.0,75,0.00,,,0.00,Wunderground v.1.12,2013-07-08 04:40:00,
2013-07-07 22:45:00,63.3,55.2,29.80,N/A,-32768,0.0,0.0,75,0.00,,,0.00,Wunderground v.1.12,2013-07-08 04:45:00,
2013-07-07 22:55:00,62.8,54.8,29.80,N/A,-32768,0.0,0.0,75,0.00,,,0.00,Wunderground v.1.12,2013-07-08 04:55:00,
2013-07-07 23:05:00,62.4,54.7,29.80,N/A,-32768,0.0,0.0,76,0.00,,,0.00,Wunderground v.1.12,2013-07-08 05:05:00,
2013-07-07 23:10:00,62.0,54.7,29.80,N/A,-32768,0.0,0.0,77,0.00,,,0.00,Wunderground v.1.12,2013-07-08 05:10:00,
2013-07-07 23:20:00,61.2,53.9,29.80,N/A,-32768,0.0,0.0,77,0.00,,,0.00,Wunderground v.1.12,2013-07-08 05:20:00,
2013-07-07 23:25:00,60.8,53.9,29.80,N/A,-32768,0.0,0.0,78,0.00,,,0.00,Wunderground v.1.12,2013-07-08 05:25:00,
2013-07-07 23:30:00,60.4,53.9,29.80,N/A,-32768,0.0,0.0,79,0.00,,,0.00,Wunderground v.1.12,2013-07-08 05:30:00,
2013-07-07 23:35:00,61.6,55.0,29.80,N/A,-737280,0.0,0.0,79,0.00,,,0.00,Wunderground v.1.12,2013-07-08 05:35:00,
2013-07-07 23:40:00,59.9,53.4,29.80,N/A,-32768,0.0,0.0,79,0.00,,,0.00,Wunderground v.1.12,2013-07-08 05:40:00,
2013-07-07 23:45:00,59.7,52.8,29.80,N/A,-32768,0.0,0.0,78,0.00,,,0.00,Wunderground v.1.12,2013-07-08 05:45:00,
2013-07-07 23:50:00,59.5,53.0,29.81,N/A,-32768,0.0,0.0,79,0.00,,,0.00,Wunderground v.1.12,2013-07-08 05:50:00,